Balaguer, Spain
Current Conditions -  °F | °C
As of 9:00 PM on Thursday 23 Oct 2014 (Local Time) from LERS Reporting Station
Clear Clear  
Wind Chill: 64°   Ceiling: Unl
Heat Index: 64°   Visibility: 6mi
Dew Point: 32°   Wind: 1mph
Humidity: 30%   Direction: NA
Pressure: 30"   Gusts: NA
Location:  41.79°N, 0.81°E
Report Text: LERS 231900Z VRB01KT CAVOK 18/00 Q1016
Loading
Personal Weather Stations






























Interactive Weather Map
Tropical Storm Tracking
New forecast layout! Learn more

10-Day Weather Forecast

Advertisements
Track Severe Weather on mobile